Time;durP1;ratioP1;P1;durP2;ratioP2;P2;SDS_P1;SDS_P2;PMS_P1;PMS_P2;Temp;Humidity;BMP_temperature;BMP_pressure;BME280_temperature;BME280_humidity;BME280_pressure;Samples;Min_cycle;Max_cycle;Signal;HPM_P1;HPM_P2
2022/08/24 00:00:20;;;;;;;1.63;0.90;;;;;;;33.59;29.26;100652.72;4967416;28;19922;-72
2022/08/24 00:02:49;;;;;;;1.73;0.93;;;;;;;33.54;28.49;100644.13;4967541;28;20054;-74
2022/08/24 00:05:20;;;;;;;1.13;1.00;;;;;;;33.35;28.37;100649.84;4967564;28;20421;-72
2022/08/24 00:07:49;;;;;;;3.25;1.05;;;;;;;33.29;28.71;100644.94;4968858;28;20117;-70
2022/08/24 00:10:20;;;;;;;2.25;1.00;;;;;;;33.23;28.41;100639.97;4973699;28;20050;-73
2022/08/24 00:12:50;;;;;;;1.52;0.95;;;;;;;33.21;28.82;100641.88;4970495;28;20125;-74
2022/08/24 00:15:19;;;;;;;2.72;1.30;;;;;;;33.14;28.75;100642.28;4962174;28;20049;-72
2022/08/24 00:17:47;;;;;;;2.40;1.10;;;;;;;33.06;29.18;100641.97;4970292;28;20058;-71
2022/08/24 00:20:16;;;;;;;2.70;1.10;;;;;;;33.01;29.46;100633.34;4970789;28;20595;-74
2022/08/24 00:22:45;;;;;;;2.70;1.02;;;;;;;32.97;29.29;100629.13;4965989;28;20051;-73
2022/08/24 00:25:22;;;;;;;2.00;1.00;;;;;;;32.92;30.00;100628.59;4972322;28;20097;-73
2022/08/24 00:27:52;;;;;;;1.80;1.10;;;;;;;32.90;30.48;100633.19;4963461;28;20508;-73
2022/08/24 00:30:22;;;;;;;1.35;0.82;;;;;;;32.90;30.99;100627.84;4963522;28;20062;-72
2022/08/24 00:33:04;;;;;;;0.98;0.80;;;;;;;32.90;29.98;100619.78;4980901;28;20061;-71
2022/08/24 00:35:33;;;;;;;2.30;1.00;;;;;;;32.96;29.88;100620.25;4988577;28;20077;-72
2022/08/24 00:38:01;;;;;;;1.20;0.90;;;;;;;33.00;29.91;100622.72;4985199;28;20050;-71
2022/08/24 00:40:33;;;;;;;1.63;1.00;;;;;;;32.97;30.13;100621.09;4989818;28;20266;-73
2022/08/24 00:43:06;;;;;;;1.15;1.00;;;;;;;32.86;29.59;100610.22;4992822;28;20045;-72
2022/08/24 00:45:45;;;;;;;1.60;1.20;;;;;;;32.67;29.27;100615.94;4987115;28;20056;-73
2022/08/24 00:48:18;;;;;;;1.27;0.93;;;;;;;32.61;29.64;100621.69;4987342;28;20059;-73
2022/08/24 00:50:53;;;;;;;1.60;0.93;;;;;;;32.57;29.89;100621.03;4988017;28;20101;-75
2022/08/24 00:53:26;;;;;;;0.95;0.90;;;;;;;32.51;29.46;100621.44;4988596;28;20042;-73
2022/08/24 00:56:01;;;;;;;2.42;1.17;;;;;;;32.47;30.30;100615.38;4983803;28;20390;-74
2022/08/24 00:58:36;;;;;;;5.50;0.93;;;;;;;32.40;30.13;100618.56;4986155;28;20076;-72
2022/08/24 01:01:08;;;;;;;2.05;1.30;;;;;;;32.26;30.21;100609.59;4980969;28;20114;-74
2022/08/24 01:03:38;;;;;;;1.27;1.10;;;;;;;32.25;30.72;100620.38;4982246;28;20047;-73
2022/08/24 01:06:07;;;;;;;1.75;1.10;;;;;;;32.20;30.12;100601.09;4993123;28;20048;-75
2022/08/24 01:08:36;;;;;;;2.00;0.95;;;;;;;32.17;31.15;100607.50;4988439;28;20078;-75
2022/08/24 01:11:10;;;;;;;3.83;1.20;;;;;;;32.16;30.59;100610.25;4992275;28;20062;-76
2022/08/24 01:13:43;;;;;;;1.52;0.90;;;;;;;32.13;30.71;100617.53;4990862;28;20042;-75
2022/08/24 01:18:48;;;;;;;2.28;0.90;;;;;;;32.11;31.16;100608.72;4992301;28;20060;-74
2022/08/24 01:19:03;;;;;;;1.92;0.90;;;;;;;32.04;31.13;100604.72;4991816;28;20078;-74
2022/08/24 01:21:35;;;;;;;2.30;0.90;;;;;;;31.99;31.58;100608.66;4988814;28;20046;-74
2022/08/24 01:24:11;;;;;;;2.33;1.15;;;;;;;31.84;30.67;100603.28;4989220;28;20046;-75
2022/08/24 01:26:44;;;;;;;2.53;1.20;;;;;;;31.77;30.40;100609.94;4988803;28;20058;-71
2022/08/24 01:29:16;;;;;;;4.40;1.10;;;;;;;31.71;31.21;100613.00;4989002;28;20503;-73
2022/08/24 01:31:45;;;;;;;3.15;1.10;;;;;;;31.66;31.26;100609.75;4991444;28;20058;-72
2022/08/24 01:34:13;;;;;;;1.30;1.00;;;;;;;31.58;31.26;100606.69;4973794;28;20599;-72
2022/08/24 01:36:44;;;;;;;4.10;1.10;;;;;;;31.50;31.90;100616.03;4969493;28;20042;-72
2022/08/24 01:39:21;;;;;;;1.60;1.10;;;;;;;31.41;31.54;100597.88;4971466;28;20614;-76
2022/08/24 01:41:50;;;;;;;1.63;1.00;;;;;;;31.34;32.56;100606.31;4970448;28;20065;-74
2022/08/24 01:44:19;;;;;;;3.50;1.30;;;;;;;31.31;32.52;100607.34;4971943;28;20070;-75
2022/08/24 01:46:52;;;;;;;1.35;1.00;;;;;;;31.20;32.44;100608.00;4975384;28;20848;-75
2022/08/24 01:49:22;;;;;;;3.67;1.15;;;;;;;31.15;33.06;100606.53;4972134;28;20462;-74
2022/08/24 01:51:51;;;;;;;1.40;1.00;;;;;;;31.13;33.15;100620.00;4969606;28;20138;-75
2022/08/24 01:54:21;;;;;;;1.65;0.90;;;;;;;31.11;32.89;100616.56;4969528;28;20055;-76
2022/08/24 01:56:50;;;;;;;4.72;1.30;;;;;;;31.08;33.28;100612.25;4975400;28;20078;-71
2022/08/24 01:59:19;;;;;;;1.45;0.90;;;;;;;31.00;33.31;100613.66;4963797;28;20097;-75
2022/08/24 02:01:52;;;;;;;1.40;0.98;;;;;;;30.93;33.21;100613.16;4971082;28;20047;-75
2022/08/24 02:04:21;;;;;;;2.40;1.00;;;;;;;30.87;34.21;100617.03;4976175;28;20058;-76
2022/08/24 02:06:50;;;;;;;1.90;1.10;;;;;;;30.78;33.53;100619.34;4971447;28;20540;-74
2022/08/24 02:09:20;;;;;;;2.50;1.00;;;;;;;30.73;33.62;100624.09;4971291;28;20055;-74
2022/08/24 02:11:49;;;;;;;0.73;0.70;;;;;;;30.69;34.20;100610.03;4970792;28;20058;-74
2022/08/24 02:14:19;;;;;;;2.80;1.08;;;;;;;30.65;33.39;100624.50;4971473;28;20554;-75
2022/08/24 02:16:47;;;;;;;1.10;0.90;;;;;;;30.56;34.52;100625.91;4972394;28;20089;-73
2022/08/24 02:19:16;;;;;;;1.05;0.82;;;;;;;30.45;33.84;100620.31;4969944;28;20054;-74
2022/08/24 02:21:45;;;;;;;2.45;0.85;;;;;;;30.33;34.15;100626.31;4969061;28;20114;-73
2022/08/24 02:24:14;;;;;;;0.93;0.82;;;;;;;30.22;34.34;100624.22;4971348;28;20046;-74
2022/08/24 02:26:44;;;;;;;1.55;0.77;;;;;;;30.13;34.79;100632.72;4977972;28;20042;-72
2022/08/24 02:29:12;;;;;;;1.15;0.80;;;;;;;30.02;34.96;100631.47;4972059;28;20046;-73
2022/08/24 02:31:41;;;;;;;1.15;0.90;;;;;;;29.98;35.84;100639.72;4974396;28;20120;-74
2022/08/24 02:34:09;;;;;;;2.33;0.98;;;;;;;29.90;35.48;100636.63;4987152;28;20050;-76
2022/08/24 02:36:38;;;;;;;1.58;0.90;;;;;;;29.82;35.94;100639.66;4990821;28;20046;-75
2022/08/24 02:39:07;;;;;;;4.05;0.95;;;;;;;29.76;36.12;100651.53;4990862;28;20532;-75
2022/08/24 02:41:36;;;;;;;1.00;0.80;;;;;;;29.67;36.39;100637.78;4986189;28;20501;-79
2022/08/24 02:44:07;;;;;;;1.58;0.90;;;;;;;29.57;36.95;100648.94;4982636;28;20054;-77
2022/08/24 02:46:36;;;;;;;2.95;0.95;;;;;;;29.48;36.72;100649.41;4982723;28;20047;-77
2022/08/24 02:49:05;;;;;;;1.77;0.80;;;;;;;29.38;37.39;100646.31;4986247;28;20599;-74
2022/08/24 02:51:35;;;;;;;2.00;0.80;;;;;;;29.34;37.26;100651.88;4985159;28;20050;-73
2022/08/24 02:54:06;;;;;;;0.70;0.70;;;;;;;29.27;37.84;100658.47;4988684;28;20058;-74
2022/08/24 02:56:34;;;;;;;0.82;0.80;;;;;;;29.18;38.26;100657.13;4986468;28;20062;-72
2022/08/24 02:59:03;;;;;;;1.58;1.00;;;;;;;29.04;37.79;100653.31;4991009;28;20042;-75
2022/08/24 03:01:33;;;;;;;3.70;0.90;;;;;;;28.98;38.57;100658.09;4988156;28;20050;-73
2022/08/24 03:04:02;;;;;;;2.13;0.90;;;;;;;28.90;38.56;100665.59;4991056;28;20089;-73
2022/08/24 03:06:31;;;;;;;2.50;1.02;;;;;;;28.82;38.39;100668.63;4990105;28;20042;-74
2022/08/24 03:09:00;;;;;;;2.08;0.90;;;;;;;28.65;38.91;100661.41;4987251;28;20066;-74
2022/08/24 03:11:29;;;;;;;3.50;1.00;;;;;;;28.60;39.23;100669.63;4987311;28;20054;-74
2022/08/24 03:13:58;;;;;;;3.50;0.73;;;;;;;28.54;39.27;100674.38;4990623;28;20050;-73
2022/08/24 03:16:28;;;;;;;2.72;0.80;;;;;;;28.45;39.23;100670.34;4987207;28;20120;-73
2022/08/24 03:18:58;;;;;;;5.38;0.70;;;;;;;28.35;39.14;100677.00;4999384;28;20080;-74
2022/08/24 03:21:26;;;;;;;3.53;0.95;;;;;;;28.29;39.10;100682.59;4990042;28;20394;-71
2022/08/24 03:23:55;;;;;;;1.77;1.00;;;;;;;28.22;39.54;100687.31;4985421;28;20385;-72
2022/08/24 03:26:24;;;;;;;4.72;1.10;;;;;;;28.15;39.72;100686.75;4986304;28;20042;-71
2022/08/24 03:28:52;;;;;;;2.67;1.00;;;;;;;28.09;39.33;100694.16;4989369;28;20046;-74
2022/08/24 03:31:21;;;;;;;2.70;1.00;;;;;;;28.02;40.53;100693.56;4990304;28;20057;-72
2022/08/24 03:33:50;;;;;;;1.25;1.00;;;;;;;27.96;40.36;100694.66;4981749;28;20069;-75
2022/08/24 03:36:20;;;;;;;1.67;0.60;;;;;;;27.87;40.32;100691.56;4988993;28;20059;-74
2022/08/24 03:38:48;;;;;;;2.17;1.02;;;;;;;27.79;40.20;100692.72;4979061;28;20043;-77
2022/08/24 03:41:17;;;;;;;1.67;0.68;;;;;;;27.74;40.20;100692.06;4986202;28;20053;-75
2022/08/24 03:43:49;;;;;;;1.10;0.95;;;;;;;27.69;41.24;100698.50;4980935;28;20058;-75
2022/08/24 03:46:21;;;;;;;2.35;1.00;;;;;;;27.61;40.97;100704.16;4986367;28;20082;-74
2022/08/24 03:48:51;;;;;;;1.52;1.02;;;;;;;27.51;41.27;100708.09;4987491;28;20456;-75
2022/08/24 03:51:23;;;;;;;1.00;0.80;;;;;;;27.39;41.05;100703.31;4988132;28;20050;-79
2022/08/24 03:53:52;;;;;;;1.55;0.73;;;;;;;27.39;40.91;100708.63;4983428;28;20129;-77
2022/08/24 03:56:21;;;;;;;1.05;0.60;;;;;;;27.33;40.89;100709.75;4986870;28;20054;-76
2022/08/24 03:58:50;;;;;;;1.48;0.80;;;;;;;27.27;40.78;100708.19;4981947;28;20054;-75
2022/08/24 04:01:19;;;;;;;1.20;0.80;;;;;;;27.22;40.59;100712.84;4981716;28;20543;-74
2022/08/24 04:03:48;;;;;;;1.85;0.52;;;;;;;27.14;40.86;100714.91;4983862;28;20047;-74
2022/08/24 04:06:18;;;;;;;0.80;0.70;;;;;;;27.10;41.42;100718.63;4979605;28;20051;-73
2022/08/24 04:08:49;;;;;;;0.90;0.65;;;;;;;27.04;41.01;100714.41;4980908;28;20054;-77
2022/08/24 04:11:20;;;;;;;1.48;0.57;;;;;;;26.99;42.20;100727.00;4986973;28;20042;-76
2022/08/24 04:13:49;;;;;;;3.42;0.68;;;;;;;26.93;40.87;100721.91;4987178;28;20050;-74
2022/08/24 04:16:20;;;;;;;0.90;0.63;;;;;;;26.89;42.57;100729.16;4987377;28;20053;-73
2022/08/24 04:18:49;;;;;;;0.60;0.50;;;;;;;26.77;40.93;100724.31;4989010;28;20511;-74
2022/08/24 04:21:19;;;;;;;2.28;0.80;;;;;;;26.78;41.82;100744.63;4987258;28;20137;-72
2022/08/24 04:23:50;;;;;;;1.30;0.80;;;;;;;26.71;41.25;100735.19;4982025;28;20536;-74
2022/08/24 04:26:20;;;;;;;1.90;0.60;;;;;;;26.62;41.03;100735.50;4989107;28;20058;-75
2022/08/24 04:28:49;;;;;;;1.10;0.73;;;;;;;26.59;42.00;100731.16;4983602;28;20050;-75
2022/08/24 04:31:18;;;;;;;2.35;0.55;;;;;;;26.57;41.57;100734.81;4987817;28;20464;-76
2022/08/24 04:33:48;;;;;;;0.50;0.40;;;;;;;26.50;40.65;100735.03;4995546;28;20416;-72
2022/08/24 04:36:18;;;;;;;1.33;0.60;;;;;;;26.45;40.86;100722.84;4978077;28;20062;-74
2022/08/24 04:38:47;;;;;;;1.48;0.70;;;;;;;26.45;42.89;100734.31;4985221;28;20042;-74
2022/08/24 04:41:20;;;;;;;1.38;0.60;;;;;;;26.35;41.58;100740.88;4990267;28;20070;-76
2022/08/24 04:43:50;;;;;;;1.90;0.50;;;;;;;26.29;42.00;100735.78;4990741;28;20065;-72
2022/08/24 04:46:20;;;;;;;1.25;0.50;;;;;;;26.27;41.71;100737.63;4980613;28;20054;-72
2022/08/24 04:48:49;;;;;;;0.68;0.60;;;;;;;26.23;42.33;100736.03;4981648;28;20622;-75
2022/08/24 04:51:20;;;;;;;1.45;1.35;;;;;;;26.15;41.52;100730.13;4980493;28;20598;-72
2022/08/24 04:53:50;;;;;;;1.23;0.60;;;;;;;26.11;41.79;100730.25;4988666;28;20459;-71
2022/08/24 04:56:22;;;;;;;1.13;0.55;;;;;;;26.08;41.67;100732.97;4984889;28;20059;-74
2022/08/24 04:58:51;;;;;;;1.42;0.50;;;;;;;26.04;41.30;100734.00;4987785;28;20051;-73
2022/08/24 05:01:22;;;;;;;0.70;0.50;;;;;;;25.95;42.13;100725.50;4987049;28;20694;-72
2022/08/24 05:03:53;;;;;;;1.07;0.53;;;;;;;25.86;42.34;100727.56;4988931;28;20681;-73
2022/08/24 05:06:23;;;;;;;2.75;0.50;;;;;;;25.75;41.52;100723.50;4988831;28;20469;-74
2022/08/24 05:08:51;;;;;;;0.95;0.40;;;;;;;25.71;41.29;100728.91;4988866;28;20054;-74
2022/08/24 05:11:23;;;;;;;1.73;0.40;;;;;;;25.68;42.20;100721.09;4990895;28;20050;-72
2022/08/24 05:13:53;;;;;;;0.70;0.50;;;;;;;25.64;42.77;100722.09;4983683;28;20058;-73
2022/08/24 05:16:23;;;;;;;0.88;0.40;;;;;;;25.61;42.72;100710.72;4992597;28;20132;-72
2022/08/24 05:18:53;;;;;;;0.40;0.32;;;;;;;25.58;42.60;100709.06;4982800;28;20142;-74
2022/08/24 05:21:24;;;;;;;1.95;0.50;;;;;;;25.50;42.64;100713.75;4987986;28;20064;-77
2022/08/24 05:23:52;;;;;;;1.38;0.38;;;;;;;25.40;42.59;100709.66;4985393;28;20051;-77
2022/08/24 05:26:25;;;;;;;0.50;0.45;;;;;;;25.26;42.56;100704.81;4982682;28;20556;-76
2022/08/24 05:28:56;;;;;;;1.08;0.45;;;;;;;25.18;43.31;100701.53;4989561;28;20049;-76
2022/08/24 05:31:34;;;;;;;1.00;0.43;;;;;;;25.13;43.54;100699.03;4986344;28;20046;-74
2022/08/24 05:34:03;;;;;;;1.33;0.50;;;;;;;25.06;43.76;100701.00;4980414;28;20065;-72
2022/08/24 05:36:33;;;;;;;2.67;0.65;;;;;;;24.97;43.56;100697.75;4971063;28;20074;-76
2022/08/24 05:39:08;;;;;;;1.67;0.50;;;;;;;24.86;43.09;100696.31;4976848;28;20678;-75
2022/08/24 05:41:38;;;;;;;1.75;0.63;;;;;;;24.74;42.87;100694.06;4980005;28;20038;-73
2022/08/24 05:44:07;;;;;;;1.98;0.60;;;;;;;24.68;43.35;100691.59;4975887;28;20050;-75
2022/08/24 05:46:36;;;;;;;1.52;0.70;;;;;;;24.57;43.66;100694.53;4977300;28;20053;-74
2022/08/24 05:49:04;;;;;;;1.00;0.50;;;;;;;24.54;43.52;100704.38;4971292;28;20043;-76
2022/08/24 05:51:33;;;;;;;2.65;0.57;;;;;;;24.46;43.96;100697.50;4965491;28;20413;-76
2022/08/24 05:54:03;;;;;;;0.98;0.50;;;;;;;24.42;43.80;100695.84;4968558;28;20412;-71
2022/08/24 05:56:32;;;;;;;3.95;0.73;;;;;;;24.35;44.56;100694.28;4970386;28;20509;-71
2022/08/24 05:59:02;;;;;;;0.73;0.60;;;;;;;24.27;44.10;100690.97;4977776;28;20066;-73
2022/08/24 06:01:32;;;;;;;3.70;0.93;;;;;;;24.20;44.78;100689.41;4969668;28;20039;-72
2022/08/24 06:04:01;;;;;;;3.15;0.65;;;;;;;24.17;44.59;100689.53;4969185;28;20533;-73
2022/08/24 06:06:30;;;;;;;0.68;0.50;;;;;;;24.10;44.80;100683.53;4969539;28;20493;-72
2022/08/24 06:09:01;;;;;;;2.08;0.70;;;;;;;24.04;44.73;100687.19;4975002;28;20053;-72
2022/08/24 06:11:32;;;;;;;2.45;0.68;;;;;;;24.00;44.54;100685.53;4966497;28;20485;-72
2022/08/24 06:14:04;;;;;;;1.70;0.70;;;;;;;23.94;44.97;100683.09;4968974;28;20050;-71
2022/08/24 06:16:35;;;;;;;4.15;0.77;;;;;;;23.92;44.76;100684.91;4962577;28;20069;-71
2022/08/24 06:19:05;;;;;;;1.17;0.70;;;;;;;23.86;45.13;100686.84;4970659;28;20050;-71
2022/08/24 06:21:34;;;;;;;1.83;0.70;;;;;;;23.83;45.13;100690.44;4978463;28;20636;-71
2022/08/24 06:24:03;;;;;;;1.15;0.63;;;;;;;23.78;45.11;100677.34;4975161;28;20058;-72
2022/08/24 06:29:19;;;;;;;0.75;0.55;;;;;;;23.78;45.80;100679.97;4975410;28;20100;-72
2022/08/24 06:31:49;;;;;;;3.22;0.50;;;;;;;23.78;45.41;100679.13;4970337;28;20473;-74
2022/08/24 06:34:19;;;;;;;1.23;0.60;;;;;;;23.76;45.67;100678.28;4981673;28;20054;-73
2022/08/24 06:36:48;;;;;;;1.58;0.60;;;;;;;23.70;45.38;100667.84;4966274;28;20087;-73
2022/08/24 06:39:16;;;;;;;3.53;0.85;;;;;;;23.67;45.60;100674.06;4965546;28;20043;-73
2022/08/24 06:41:45;;;;;;;1.13;0.60;;;;;;;23.64;45.60;100671.53;4964349;28;20259;-73
2022/08/24 06:44:13;;;;;;;1.45;0.73;;;;;;;23.57;46.75;100662.00;4965432;28;20042;-74
2022/08/24 06:46:44;;;;;;;0.88;0.60;;;;;;;23.51;46.65;100678.88;4968278;28;20067;-74
2022/08/24 06:49:13;;;;;;;1.25;0.70;;;;;;;23.45;46.61;100676.38;4968420;28;20049;-75
2022/08/24 06:51:41;;;;;;;5.63;0.75;;;;;;;23.37;46.40;100673.09;4966894;28;20051;-73
2022/08/24 06:54:10;;;;;;;1.73;0.70;;;;;;;23.29;47.42;100672.38;4966799;28;20896;-73
2022/08/24 06:56:39;;;;;;;1.17;0.60;;;;;;;23.20;46.92;100678.75;4958941;28;20050;-72
2022/08/24 06:59:08;;;;;;;3.20;0.88;;;;;;;23.15;46.86;100675.38;4966963;28;20106;-74
2022/08/24 07:01:36;;;;;;;1.48;0.70;;;;;;;23.11;46.85;100679.88;4966724;28;20963;-74
2022/08/24 07:04:07;;;;;;;1.15;0.80;;;;;;;23.11;47.55;100676.34;4968537;28;20943;-72
2022/08/24 07:06:37;;;;;;;1.50;0.80;;;;;;;23.12;47.55;100681.59;4969126;28;20066;-73
2022/08/24 07:09:06;;;;;;;0.95;0.70;;;;;;;23.12;48.57;100678.94;4967954;28;20539;-72
2022/08/24 07:11:34;;;;;;;1.08;0.80;;;;;;;23.09;48.53;100676.41;4966288;28;20137;-72
2022/08/24 07:14:03;;;;;;;2.90;0.70;;;;;;;23.01;48.71;100670.41;4969327;28;20050;-72
2022/08/24 07:16:32;;;;;;;1.15;0.82;;;;;;;22.92;49.04;100670.59;4965854;28;20097;-73
2022/08/24 07:19:02;;;;;;;0.70;0.65;;;;;;;22.86;48.80;100676.00;4969434;28;21165;-73
2022/08/24 07:21:33;;;;;;;2.42;0.70;;;;;;;22.81;48.59;100670.81;4968304;28;20050;-73
2022/08/24 07:24:03;;;;;;;0.93;0.73;;;;;;;22.75;49.50;100682.41;4974856;28;20506;-72
2022/08/24 07:26:32;;;;;;;0.93;0.60;;;;;;;22.69;49.84;100679.88;4968671;28;20496;-73
2022/08/24 07:29:05;;;;;;;2.50;0.88;;;;;;;22.63;49.57;100672.13;4969478;28;20058;-73
2022/08/24 07:31:34;;;;;;;2.50;1.10;;;;;;;22.59;50.22;100673.09;4969497;28;20042;-71
2022/08/24 07:34:04;;;;;;;4.72;1.05;;;;;;;22.56;51.30;100674.03;4984360;28;21007;-73
2022/08/24 07:36:34;;;;;;;0.85;0.80;;;;;;;22.53;50.45;100676.72;4990698;28;20050;-72
2022/08/24 07:39:03;;;;;;;1.83;0.90;;;;;;;22.47;50.38;100673.31;4988130;28;20054;-73
2022/08/24 07:41:32;;;;;;;5.43;0.85;;;;;;;22.41;50.76;100674.34;4984309;28;20132;-74
2022/08/24 07:44:01;;;;;;;1.73;0.82;;;;;;;22.38;50.87;100669.16;4984823;28;20051;-73
2022/08/24 07:46:29;;;;;;;1.02;0.75;;;;;;;22.32;50.95;100663.97;4989554;28;20524;-72
2022/08/24 07:48:58;;;;;;;1.35;0.82;;;;;;;22.21;51.29;100658.91;4980066;28;20505;-73
2022/08/24 07:51:27;;;;;;;1.38;0.95;;;;;;;22.16;51.30;100666.03;4988005;28;20053;-71
2022/08/24 07:53:58;;;;;;;3.45;0.80;;;;;;;22.15;51.61;100665.16;4985399;28;20050;-71
2022/08/24 07:56:27;;;;;;;1.40;1.00;;;;;;;22.17;51.52;100662.47;4983420;28;20491;-72
2022/08/24 07:58:56;;;;;;;2.85;0.93;;;;;;;22.18;51.00;100658.97;4984606;28;20061;-73
2022/08/24 08:01:25;;;;;;;1.75;0.80;;;;;;;22.17;52.79;100667.75;4985657;28;20064;-71
2022/08/24 08:03:54;;;;;;;1.33;0.80;;;;;;;22.13;53.30;100655.56;4980311;28;20571;-72
2022/08/24 08:06:23;;;;;;;1.38;0.80;;;;;;;22.09;53.04;100653.88;4988874;28;20077;-74
2022/08/24 08:08:52;;;;;;;1.23;0.93;;;;;;;22.08;53.46;100657.38;4985531;28;20050;-73
2022/08/24 08:11:22;;;;;;;1.13;0.80;;;;;;;22.07;52.60;100663.56;4989615;28;20061;-72
2022/08/24 08:13:53;;;;;;;4.43;0.90;;;;;;;22.02;52.10;100653.13;4988109;28;20632;-74
2022/08/24 08:16:22;;;;;;;2.00;1.02;;;;;;;22.04;52.10;100666.28;4977328;28;20062;-74
2022/08/24 08:18:50;;;;;;;2.05;0.75;;;;;;;22.01;52.46;100663.69;4982921;28;21275;-72
2022/08/24 08:24:17;;;;;;;1.23;0.70;;;;;;;21.84;54.11;100661.38;4986859;28;20424;-73
2022/08/24 08:26:49;;;;;;;1.35;0.73;;;;;;;21.79;53.95;100657.97;4985792;28;20049;-73
2022/08/24 08:29:19;;;;;;;4.20;1.10;;;;;;;21.75;54.10;100658.00;4986026;28;20092;-74
2022/08/24 08:31:48;;;;;;;1.83;0.95;;;;;;;21.72;54.69;100657.22;4982107;28;20101;-72
2022/08/24 08:34:16;;;;;;;1.77;0.90;;;;;;;21.70;55.45;100661.63;4987532;28;20065;-73
2022/08/24 08:36:45;;;;;;;2.42;0.90;;;;;;;21.67;55.58;100661.66;4982588;28;20046;-73
2022/08/24 08:39:17;;;;;;;1.60;0.90;;;;;;;21.61;56.38;100660.03;4982541;28;20663;-73
2022/08/24 08:42:13;;;;;;;2.20;0.80;;;;;;;21.57;56.53;100654.84;4984022;28;20054;-73
2022/08/24 08:44:53;;;;;;;1.30;0.88;;;;;;;21.49;56.91;100655.84;4984740;28;20064;-72
2022/08/24 08:47:44;;;;;;;1.92;0.90;;;;;;;21.40;57.32;100653.38;4981298;28;20050;-72
2022/08/24 08:50:20;;;;;;;4.15;1.00;;;;;;;21.30;57.33;100664.88;4983500;28;20115;-72
2022/08/24 08:53:21;;;;;;;1.67;1.10;;;;;;;21.21;57.82;100651.88;4981919;28;20061;-72
2022/08/24 08:56:00;;;;;;;1.35;1.00;;;;;;;21.17;58.10;100644.94;4980201;28;20057;-73
2022/08/24 08:58:55;;;;;;;3.05;1.10;;;;;;;21.08;58.39;100653.84;4984179;28;20085;-75
2022/08/24 09:01:32;;;;;;;6.03;1.02;;;;;;;21.10;58.33;100649.44;4988530;28;20042;-74
2022/08/24 09:04:18;;;;;;;2.45;1.13;;;;;;;21.03;58.97;100638.13;4986279;28;20053;-74
2022/08/24 09:06:57;;;;;;;3.08;1.08;;;;;;;21.00;59.39;100645.19;4990609;28;20053;-73
2022/08/24 09:09:51;;;;;;;1.30;0.85;;;;;;;20.95;59.50;100644.41;4980179;28;20054;-74
2022/08/24 09:12:30;;;;;;;4.35;1.13;;;;;;;20.85;60.23;100656.84;4985021;28;20781;-73
2022/08/24 09:15:35;;;;;;;2.63;1.30;;;;;;;20.81;60.73;100658.63;4987045;28;20046;-75
2022/08/24 09:18:22;;;;;;;1.88;0.95;;;;;;;20.75;61.39;100652.56;4983020;28;20073;-73
2022/08/24 09:21:16;;;;;;;2.75;1.00;;;;;;;20.69;61.15;100656.19;4987862;28;20137;-74
2022/08/24 09:23:54;;;;;;;2.38;1.30;;;;;;;20.64;62.45;100661.50;4981896;28;20472;-74
2022/08/24 09:26:28;;;;;;;3.53;1.30;;;;;;;20.54;63.10;100657.19;4983779;28;20053;-72
2022/08/24 09:29:10;;;;;;;2.78;1.33;;;;;;;20.45;63.35;100663.44;4986913;28;20046;-73
2022/08/24 09:32:04;;;;;;;2.97;0.95;;;;;;;20.42;63.22;100654.75;4982194;28;20133;-73
2022/08/24 09:34:39;;;;;;;5.53;1.00;;;;;;;20.40;62.82;100656.50;4988123;28;20077;-73
2022/08/24 09:37:34;;;;;;;1.77;1.10;;;;;;;20.39;63.31;100660.03;5000952;28;20053;-72
2022/08/24 09:40:17;;;;;;;3.75;1.25;;;;;;;20.33;63.66;100658.34;4987269;28;20104;-73
2022/08/24 09:43:16;;;;;;;2.13;0.90;;;;;;;20.30;63.74;100664.50;4992012;28;20557;-73
2022/08/24 09:46:20;;;;;;;1.88;1.10;;;;;;;20.27;64.61;100658.41;4999431;28;20050;-73
2022/08/24 09:49:43;;;;;;;1.45;1.00;;;;;;;20.19;64.14;100648.00;4969531;28;20051;-73
2022/08/24 09:52:42;;;;;;;2.83;1.23;;;;;;;20.19;64.53;100662.91;4930213;29;20104;-73
2022/08/24 09:55:53;;;;;;;1.50;0.95;;;;;;;20.17;64.82;100660.28;4989487;28;20054;-74
2022/08/24 09:58:30;;;;;;;1.35;1.10;;;;;;;20.17;64.90;100670.78;4987951;28;20482;-73
2022/08/24 10:01:08;;;;;;;3.80;1.23;;;;;;;20.13;65.08;100661.19;4987495;28;20058;-74
2022/08/24 10:03:54;;;;;;;2.20;0.90;;;;;;;20.07;65.38;100670.03;4993114;28;20053;-73
2022/08/24 10:06:37;;;;;;;2.17;1.10;;;;;;;20.00;65.58;100665.75;4987657;28;20043;-73
2022/08/24 10:09:57;;;;;;;2.30;1.02;;;;;;;19.94;66.07;100667.56;4990249;28;20113;-74
2022/08/24 10:12:42;;;;;;;1.00;0.88;;;;;;;19.90;66.09;100665.84;4986190;28;20046;-73
2022/08/24 10:15:15;;;;;;;2.92;1.90;;;;;;;19.87;66.61;100672.88;4986853;28;20451;-74
2022/08/24 10:18:02;;;;;;;2.15;0.98;;;;;;;19.85;67.03;100669.38;4982282;28;20546;-74
2022/08/24 10:20:55;;;;;;;2.20;1.17;;;;;;;19.80;66.95;100670.31;4980465;28;20050;-73
2022/08/24 10:23:42;;;;;;;1.33;1.05;;;;;;;19.72;67.06;100666.88;4984598;28;20042;-73
2022/08/24 10:26:19;;;;;;;1.50;1.30;;;;;;;19.69;67.26;100664.31;4982546;28;20488;-73
2022/08/24 10:29:12;;;;;;;1.85;0.98;;;;;;;19.63;67.50;100668.69;4987284;28;20424;-73
2022/08/24 10:31:52;;;;;;;4.65;1.25;;;;;;;19.56;68.23;100655.63;4984810;28;20050;-73
2022/08/24 10:34:35;;;;;;;1.92;1.17;;;;;;;19.45;68.36;100659.22;4982715;28;20061;-73
2022/08/24 10:37:23;;;;;;;;;;;;;;;19.35;69.05;100654.06;4993044;28;20065;-73
2022/08/24 10:40:12;;;;;;;2.50;1.20;;;;;;;19.29;68.56;100649.75;4977204;28;19922;-74
2022/08/24 10:46:25;;;;;;;3.55;1.10;;;;;;;19.15;69.15;100642.00;4990366;28;20062;-73
2022/08/24 10:49:42;;;;;;;2.90;1.75;;;;;;;19.15;69.05;100646.34;4995777;28;20046;-75
2022/08/24 10:52:41;;;;;;;2.40;1.05;;;;;;;19.16;68.45;100650.72;4986048;28;20052;-75
2022/08/24 10:55:20;;;;;;;1.60;1.20;;;;;;;19.17;67.75;100652.44;4988912;28;20453;-75
2022/08/24 10:58:06;;;;;;;4.60;1.25;;;;;;;19.16;68.95;100663.84;4984684;28;20137;-73
2022/08/24 11:00:36;;;;;;;2.83;1.20;;;;;;;19.11;68.78;100657.75;4984873;28;20057;-75
2022/08/24 11:03:14;;;;;;;2.83;1.17;;;;;;;19.10;68.36;100650.75;4993765;28;20042;-74
2022/08/24 11:05:48;;;;;;;4.93;1.52;;;;;;;19.05;68.44;100651.66;4997139;28;20054;-73
2022/08/24 11:08:22;;;;;;;2.63;1.40;;;;;;;19.00;69.09;100660.44;4985931;28;20070;-73
2022/08/24 11:11:09;;;;;;;2.33;1.10;;;;;;;18.92;69.92;100650.03;4976383;28;20050;-73
2022/08/24 11:13:53;;;;;;;1.98;1.08;;;;;;;18.87;70.74;100654.41;4985279;28;20059;-73
2022/08/24 11:16:29;;;;;;;1.95;1.20;;;;;;;18.87;70.54;100654.41;4990046;28;20058;-75
2022/08/24 11:18:59;;;;;;;1.80;1.20;;;;;;;18.89;69.12;100662.28;4996636;28;20057;-74
2022/08/24 11:21:40;;;;;;;2.65;1.08;;;;;;;18.85;69.82;100656.16;4990450;28;20101;-73
2022/08/24 11:24:13;;;;;;;1.40;0.93;;;;;;;18.83;69.53;100658.81;4983995;28;20050;-73
2022/08/24 11:26:54;;;;;;;3.35;1.15;;;;;;;18.80;70.58;100652.69;4984973;28;20396;-74
2022/08/24 11:29:24;;;;;;;3.15;0.85;;;;;;;18.73;70.22;100657.06;4989012;28;20051;-73
2022/08/24 11:31:53;;;;;;;1.80;1.33;;;;;;;18.72;69.88;100655.34;4991376;28;20054;-75
2022/08/24 11:34:33;;;;;;;1.50;1.10;;;;;;;18.74;69.63;100661.44;4985894;28;20062;-74
2022/08/24 11:37:02;;;;;;;1.50;1.10;;;;;;;18.76;69.36;100650.94;4991376;28;20054;-74
2022/08/24 11:39:35;;;;;;;1.75;1.40;;;;;;;18.76;69.62;100650.94;4988941;28;20492;-73
2022/08/24 11:42:18;;;;;;;1.58;1.20;;;;;;;18.73;70.37;100649.22;4987021;28;20194;-74
2022/08/24 11:44:55;;;;;;;2.67;1.67;;;;;;;18.75;69.92;100647.44;4989136;28;20468;-73
2022/08/24 11:47:46;;;;;;;1.50;1.23;;;;;;;18.76;68.95;100645.69;4984986;28;20064;-73
2022/08/24 11:50:31;;;;;;;3.03;1.20;;;;;;;18.76;69.20;100649.22;4985399;28;20046;-75
2022/08/24 11:53:14;;;;;;;1.52;1.23;;;;;;;18.78;69.37;100657.97;4989200;28;20046;-74
2022/08/24 11:55:51;;;;;;;1.70;1.30;;;;;;;18.78;68.44;100649.22;4985604;28;21067;-74
2022/08/24 11:58:31;;;;;;;1.45;1.10;;;;;;;18.79;68.49;100653.59;4989191;28;20097;-73
2022/08/24 12:01:06;;;;;;;2.22;1.35;;;;;;;18.74;68.50;100652.72;4981431;28;20416;-72
2022/08/24 12:03:51;;;;;;;3.60;1.38;;;;;;;18.71;68.31;100647.47;4984971;28;20065;-75